sensor_id;sensor_type;location;lat;lon;timestamp;pressure;altitude;pressure_sealevel;temperature;humidity
54022;BME280;39936;51.058;17.220;2023-04-19T00:01:13;102200.40;;;9.05;100.00
54022;BME280;39936;51.058;17.220;2023-04-19T00:05:05;102198.30;;;9.05;100.00
54022;BME280;39936;51.058;17.220;2023-04-19T00:08:30;102219.46;;;9.16;100.00
54022;BME280;39936;51.058;17.220;2023-04-19T00:16:32;102216.49;;;9.15;100.00
54022;BME280;39936;51.058;17.220;2023-04-19T00:20:30;102222.52;;;9.08;100.00
54022;BME280;39936;51.058;17.220;2023-04-19T00:24:14;102231.91;;;9.00;100.00
54022;BME280;39936;51.058;17.220;2023-04-19T00:28:09;102219.84;;;8.92;100.00
54022;BME280;39936;51.058;17.220;2023-04-19T00:32:10;102213.16;;;8.80;100.00
54022;BME280;39936;51.058;17.220;2023-04-19T00:35:52;102205.93;;;8.68;100.00
54022;BME280;39936;51.058;17.220;2023-04-19T00:43:49;102198.75;;;8.65;100.00
54022;BME280;39936;51.058;17.220;2023-04-19T00:47:28;102192.63;;;8.65;100.00
54022;BME280;39936;51.058;17.220;2023-04-19T00:51:30;102155.72;;;8.41;100.00
54022;BME280;39936;51.058;17.220;2023-04-19T00:55:08;102188.87;;;8.49;100.00
54022;BME280;39936;51.058;17.220;2023-04-19T00:58:54;102181.57;;;8.45;100.00
54022;BME280;39936;51.058;17.220;2023-04-19T01:02:38;102173.46;;;8.45;100.00
54022;BME280;39936;51.058;17.220;2023-04-19T01:06:25;102175.45;;;8.37;100.00
54022;BME280;39936;51.058;17.220;2023-04-19T01:14:10;102172.52;;;8.26;100.00
54022;BME280;39936;51.058;17.220;2023-04-19T01:17:55;102169.02;;;8.23;100.00
54022;BME280;39936;51.058;17.220;2023-04-19T01:22:19;102152.22;;;8.07;100.00
54022;BME280;39936;51.058;17.220;2023-04-19T01:26:02;102161.05;;;8.10;100.00
54022;BME280;39936;51.058;17.220;2023-04-19T01:29:41;102161.99;;;8.02;100.00
54022;BME280;39936;51.058;17.220;2023-04-19T01:33:25;102155.62;;;7.93;100.00
54022;BME280;39936;51.058;17.220;2023-04-19T01:37:33;102150.59;;;7.90;100.00
54022;BME280;39936;51.058;17.220;2023-04-19T01:41:20;102159.38;;;7.82;99.33
54022;BME280;39936;51.058;17.220;2023-04-19T01:44:48;102155.11;;;7.80;98.28
54022;BME280;39936;51.058;17.220;2023-04-19T01:49:01;102149.43;;;7.72;96.53
54022;BME280;39936;51.058;17.220;2023-04-19T01:52:44;102139.93;;;7.66;96.76
54022;BME280;39936;51.058;17.220;2023-04-19T02:00:41;102140.99;;;7.64;97.46
54022;BME280;39936;51.058;17.220;2023-04-19T02:04:51;102143.97;;;7.61;98.14
54022;BME280;39936;51.058;17.220;2023-04-19T02:08:32;102145.23;;;7.48;93.91
54022;BME280;39936;51.058;17.220;2023-04-19T02:12:04;102142.80;;;7.35;88.49
54022;BME280;39936;51.058;17.220;2023-04-19T02:16:13;102133.16;;;7.24;87.96
54022;BME280;39936;51.058;17.220;2023-04-19T02:20:15;102135.25;;;7.21;85.58
54022;BME280;39936;51.058;17.220;2023-04-19T02:23:32;102122.55;;;7.17;86.25
54022;BME280;39936;51.058;17.220;2023-04-19T02:26:55;102128.23;;;7.19;86.72
54022;BME280;39936;51.058;17.220;2023-04-19T02:30:36;102133.42;;;7.19;86.92
54022;BME280;39936;51.058;17.220;2023-04-19T02:34:21;102129.95;;;7.20;87.55
54022;BME280;39936;51.058;17.220;2023-04-19T02:38:40;102128.84;;;7.15;84.87
54022;BME280;39936;51.058;17.220;2023-04-19T02:42:21;102120.47;;;7.10;83.88
54022;BME280;39936;51.058;17.220;2023-04-19T02:45:50;102119.78;;;7.07;82.75
54022;BME280;39936;51.058;17.220;2023-04-19T02:50:00;102116.31;;;7.06;84.58
54022;BME280;39936;51.058;17.220;2023-04-19T02:53:38;102115.77;;;7.05;84.12
54022;BME280;39936;51.058;17.220;2023-04-19T03:01:20;102112.31;;;6.79;80.01
54022;BME280;39936;51.058;17.220;2023-04-19T03:05:23;102106.12;;;6.79;80.67
54022;BME280;39936;51.058;17.220;2023-04-19T03:09:05;102105.73;;;6.73;78.62
54022;BME280;39936;51.058;17.220;2023-04-19T03:12:42;102097.70;;;6.71;80.10
54022;BME280;39936;51.058;17.220;2023-04-19T03:16:18;102094.70;;;6.64;80.79
54022;BME280;39936;51.058;17.220;2023-04-19T03:19:35;102093.21;;;6.51;79.63
54022;BME280;39936;51.058;17.220;2023-04-19T03:23:15;102090.27;;;6.43;79.02
54022;BME280;39936;51.058;17.220;2023-04-19T03:26:54;102093.70;;;6.40;77.45
54022;BME280;39936;51.058;17.220;2023-04-19T03:30:46;102094.36;;;6.33;76.79
54022;BME280;39936;51.058;17.220;2023-04-19T03:38:09;102102.43;;;6.12;75.42
54022;BME280;39936;51.058;17.220;2023-04-19T03:41:32;102083.36;;;6.06;75.17
54022;BME280;39936;51.058;17.220;2023-04-19T03:44:49;102101.32;;;6.04;75.02
54022;BME280;39936;51.058;17.220;2023-04-19T03:48:35;102091.66;;;5.99;74.11
54022;BME280;39936;51.058;17.220;2023-04-19T03:52:47;102094.55;;;5.96;74.02
54022;BME280;39936;51.058;17.220;2023-04-19T03:56:20;102089.41;;;5.93;76.09
54022;BME280;39936;51.058;17.220;2023-04-19T04:00:18;102094.52;;;5.93;75.72
54022;BME280;39936;51.058;17.220;2023-04-19T04:04:22;102105.77;;;5.95;77.24
54022;BME280;39936;51.058;17.220;2023-04-19T04:08:01;102110.47;;;5.87;77.78
54022;BME280;39936;51.058;17.220;2023-04-19T04:11:41;102105.27;;;5.80;76.70
54022;BME280;39936;51.058;17.220;2023-04-19T04:19:56;102109.02;;;5.60;77.72
54022;BME280;39936;51.058;17.220;2023-04-19T04:23:21;102101.81;;;5.51;77.10
54022;BME280;39936;51.058;17.220;2023-04-19T04:27:10;102110.34;;;5.47;77.71
54022;BME280;39936;51.058;17.220;2023-04-19T04:31:19;102111.43;;;5.38;78.23
54022;BME280;39936;51.058;17.220;2023-04-19T04:34:58;102131.30;;;5.28;78.58
54022;BME280;39936;51.058;17.220;2023-04-19T04:38:53;102129.18;;;5.17;80.29
54022;BME280;39936;51.058;17.220;2023-04-19T04:46:47;102126.54;;;4.58;92.37
54022;BME280;39936;51.058;17.220;2023-04-19T04:53:58;102116.72;;;3.61;100.00
54022;BME280;39936;51.058;17.220;2023-04-19T04:57:40;102113.75;;;3.52;100.00
54022;BME280;39936;51.058;17.220;2023-04-19T05:01:02;102116.97;;;3.53;100.00
54022;BME280;39936;51.058;17.220;2023-04-19T05:04:24;102128.43;;;3.60;100.00
54022;BME280;39936;51.058;17.220;2023-04-19T05:08:39;102120.07;;;3.62;100.00
54022;BME280;39936;51.058;17.220;2023-04-19T05:12:28;102120.75;;;3.64;100.00
54022;BME280;39936;51.058;17.220;2023-04-19T05:15:45;102128.29;;;3.63;100.00
54022;BME280;39936;51.058;17.220;2023-04-19T05:20:08;102125.96;;;3.63;100.00
54022;BME280;39936;51.058;17.220;2023-04-19T05:23:37;102093.53;;;3.50;100.00
54022;BME280;39936;51.058;17.220;2023-04-19T05:27:35;102084.95;;;3.50;100.00
54022;BME280;39936;51.058;17.220;2023-04-19T05:31:39;102117.31;;;3.74;100.00
54022;BME280;39936;51.058;17.220;2023-04-19T05:35:45;102116.80;;;3.73;100.00
54022;BME280;39936;51.058;17.220;2023-04-19T05:39:03;102105.75;;;3.69;100.00
54022;BME280;39936;51.058;17.220;2023-04-19T05:42:20;102085.31;;;3.58;100.00
54022;BME280;39936;51.058;17.220;2023-04-19T05:46:04;102109.48;;;3.73;100.00
54022;BME280;39936;51.058;17.220;2023-04-19T05:49:41;102107.74;;;3.81;100.00
54022;BME280;39936;51.058;17.220;2023-04-19T05:57:03;102107.43;;;3.84;100.00
54022;BME280;39936;51.058;17.220;2023-04-19T06:00:35;102104.21;;;3.83;100.00
54022;BME280;39936;51.058;17.220;2023-04-19T06:03:55;102100.38;;;3.79;100.00
54022;BME280;39936;51.058;17.220;2023-04-19T06:07:13;102093.91;;;3.74;100.00
54022;BME280;39936;51.058;17.220;2023-04-19T06:10:55;102099.80;;;3.77;100.00
54022;BME280;39936;51.058;17.220;2023-04-19T06:14:18;102098.03;;;3.79;100.00
54022;BME280;39936;51.058;17.220;2023-04-19T06:18:29;102107.49;;;3.80;100.00
54022;BME280;39936;51.058;17.220;2023-04-19T06:21:53;102110.41;;;3.65;100.00
54022;BME280;39936;51.058;17.220;2023-04-19T06:26:04;102115.43;;;3.73;100.00
54022;BME280;39936;51.058;17.220;2023-04-19T06:29:44;102113.44;;;3.73;100.00
54022;BME280;39936;51.058;17.220;2023-04-19T06:33:07;102128.05;;;3.73;100.00
54022;BME280;39936;51.058;17.220;2023-04-19T06:36:27;102114.70;;;3.63;99.61
54022;BME280;39936;51.058;17.220;2023-04-19T06:39:42;102114.28;;;3.79;100.00
54022;BME280;39936;51.058;17.220;2023-04-19T06:42:56;102098.52;;;3.70;100.00
54022;BME280;39936;51.058;17.220;2023-04-19T06:46:18;102112.02;;;3.93;98.98
54022;BME280;39936;51.058;17.220;2023-04-19T06:53:30;102123.48;;;4.05;97.80
54022;BME280;39936;51.058;17.220;2023-04-19T06:57:17;102126.65;;;4.09;95.36
54022;BME280;39936;51.058;17.220;2023-04-19T07:01:04;102124.46;;;4.08;95.05
54022;BME280;39936;51.058;17.220;2023-04-19T07:04:43;102121.63;;;3.97;97.18
54022;BME280;39936;51.058;17.220;2023-04-19T07:08:05;102125.35;;;4.01;99.85
54022;BME280;39936;51.058;17.220;2023-04-19T07:11:26;102124.34;;;4.10;98.21
54022;BME280;39936;51.058;17.220;2023-04-19T07:14:43;102120.98;;;4.03;97.05
54022;BME280;39936;51.058;17.220;2023-04-19T07:18:04;102120.04;;;4.06;97.57
54022;BME280;39936;51.058;17.220;2023-04-19T07:21:25;102120.43;;;4.14;99.41
54022;BME280;39936;51.058;17.220;2023-04-19T07:24:53;102101.34;;;4.25;99.91
54022;BME280;39936;51.058;17.220;2023-04-19T07:28:11;102105.44;;;4.26;99.37
54022;BME280;39936;51.058;17.220;2023-04-19T07:31:48;102091.70;;;3.98;100.00
54022;BME280;39936;51.058;17.220;2023-04-19T07:35:11;102111.52;;;4.05;100.00
54022;BME280;39936;51.058;17.220;2023-04-19T07:39:21;102115.95;;;4.00;100.00
54022;BME280;39936;51.058;17.220;2023-04-19T07:46:31;102103.45;;;3.83;100.00
54022;BME280;39936;51.058;17.220;2023-04-19T07:49:52;102097.61;;;3.83;100.00
54022;BME280;39936;51.058;17.220;2023-04-19T07:53:23;102097.03;;;3.90;100.00
54022;BME280;39936;51.058;17.220;2023-04-19T07:57:25;102098.04;;;3.90;100.00
54022;BME280;39936;51.058;17.220;2023-04-19T08:01:28;102093.65;;;3.95;100.00
54022;BME280;39936;51.058;17.220;2023-04-19T08:04:50;102095.55;;;4.08;100.00
54022;BME280;39936;51.058;17.220;2023-04-19T08:08:07;102080.77;;;4.00;100.00
54022;BME280;39936;51.058;17.220;2023-04-19T08:11:25;102089.32;;;4.05;100.00
54022;BME280;39936;51.058;17.220;2023-04-19T08:15:08;102084.62;;;4.14;100.00
54022;BME280;39936;51.058;17.220;2023-04-19T08:18:49;102079.52;;;4.22;100.00
54022;BME280;39936;51.058;17.220;2023-04-19T08:22:54;102071.95;;;4.37;100.00
54022;BME280;39936;51.058;17.220;2023-04-19T08:27:24;102074.73;;;4.31;100.00
54022;BME280;39936;51.058;17.220;2023-04-19T08:30:46;102080.16;;;4.31;100.00
54022;BME280;39936;51.058;17.220;2023-04-19T08:34:10;102083.33;;;4.27;100.00
54022;BME280;39936;51.058;17.220;2023-04-19T08:37:32;102082.13;;;4.24;100.00
54022;BME280;39936;51.058;17.220;2023-04-19T08:41:22;102079.91;;;4.20;100.00
54022;BME280;39936;51.058;17.220;2023-04-19T08:44:39;102040.41;;;4.04;100.00
54022;BME280;39936;51.058;17.220;2023-04-19T08:48:34;102075.95;;;4.22;100.00
54022;BME280;39936;51.058;17.220;2023-04-19T08:52:14;102066.33;;;4.36;100.00
54022;BME280;39936;51.058;17.220;2023-04-19T08:55:37;102064.09;;;4.55;100.00
54022;BME280;39936;51.058;17.220;2023-04-19T08:58:55;102065.08;;;4.55;100.00
54022;BME280;39936;51.058;17.220;2023-04-19T09:02:20;102052.70;;;4.61;100.00
54022;BME280;39936;51.058;17.220;2023-04-19T09:06:03;102058.46;;;4.74;100.00
54022;BME280;39936;51.058;17.220;2023-04-19T09:09:44;102064.45;;;4.80;100.00
54022;BME280;39936;51.058;17.220;2023-04-19T09:13:05;102056.23;;;4.74;99.11
54022;BME280;39936;51.058;17.220;2023-04-19T09:16:25;102053.32;;;4.67;99.93
54022;BME280;39936;51.058;17.220;2023-04-19T09:23:46;102049.56;;;4.73;100.00
54022;BME280;39936;51.058;17.220;2023-04-19T09:27:33;102054.42;;;4.63;99.95
54022;BME280;39936;51.058;17.220;2023-04-19T09:31:16;102049.73;;;4.59;100.00
54022;BME280;39936;51.058;17.220;2023-04-19T09:34:33;102047.81;;;4.63;100.00
54022;BME280;39936;51.058;17.220;2023-04-19T09:38:00;102052.17;;;4.61;100.00
54022;BME280;39936;51.058;17.220;2023-04-19T09:41:17;102050.73;;;4.56;100.00
54022;BME280;39936;51.058;17.220;2023-04-19T09:44:36;102039.73;;;4.41;100.00
54022;BME280;39936;51.058;17.220;2023-04-19T09:48:48;102057.86;;;4.48;100.00
54022;BME280;39936;51.058;17.220;2023-04-19T09:52:13;102055.84;;;4.49;100.00
54022;BME280;39936;51.058;17.220;2023-04-19T09:55:34;102059.73;;;4.49;100.00
54022;BME280;39936;51.058;17.220;2023-04-19T09:58:51;102053.95;;;4.50;100.00
54022;BME280;39936;51.058;17.220;2023-04-19T10:02:10;102060.52;;;4.48;100.00
54022;BME280;39936;51.058;17.220;2023-04-19T10:05:50;102036.27;;;4.42;100.00
54022;BME280;39936;51.058;17.220;2023-04-19T10:09:10;102046.59;;;4.51;100.00
54022;BME280;39936;51.058;17.220;2023-04-19T10:13:18;102050.35;;;4.50;100.00
54022;BME280;39936;51.058;17.220;2023-04-19T10:16:55;102051.67;;;4.51;100.00
54022;BME280;39936;51.058;17.220;2023-04-19T10:25:15;102041.19;;;4.50;100.00
54022;BME280;39936;51.058;17.220;2023-04-19T10:28:56;102040.58;;;4.61;100.00
54022;BME280;39936;51.058;17.220;2023-04-19T10:32:30;102040.02;;;4.67;100.00
54022;BME280;39936;51.058;17.220;2023-04-19T10:35:49;102037.20;;;4.72;100.00
54022;BME280;39936;51.058;17.220;2023-04-19T10:39:39;102038.34;;;4.74;100.00
54022;BME280;39936;51.058;17.220;2023-04-19T10:43:45;102038.48;;;4.77;100.00
54022;BME280;39936;51.058;17.220;2023-04-19T10:47:07;102040.92;;;4.86;100.00
54022;BME280;39936;51.058;17.220;2023-04-19T10:50:27;102034.50;;;4.89;100.00
54022;BME280;39936;51.058;17.220;2023-04-19T10:53:54;102035.38;;;4.93;100.00
54022;BME280;39936;51.058;17.220;2023-04-19T10:58:01;102012.13;;;4.82;100.00
54022;BME280;39936;51.058;17.220;2023-04-19T11:05:06;102028.94;;;4.94;100.00
54022;BME280;39936;51.058;17.220;2023-04-19T11:09:05;102032.99;;;4.91;100.00
54022;BME280;39936;51.058;17.220;2023-04-19T11:12:45;102031.15;;;4.94;100.00
54022;BME280;39936;51.058;17.220;2023-04-19T11:16:09;102017.73;;;4.89;100.00
54022;BME280;39936;51.058;17.220;2023-04-19T11:19:59;101989.37;;;4.77;100.00
54022;BME280;39936;51.058;17.220;2023-04-19T11:23:42;102014.95;;;4.96;100.00
54022;BME280;39936;51.058;17.220;2023-04-19T11:27:41;102019.87;;;5.08;100.00
54022;BME280;39936;51.058;17.220;2023-04-19T11:31:04;102016.24;;;5.09;100.00
54022;BME280;39936;51.058;17.220;2023-04-19T11:34:27;102021.06;;;5.06;100.00
54022;BME280;39936;51.058;17.220;2023-04-19T11:37:55;102022.38;;;5.12;100.00
54022;BME280;39936;51.058;17.220;2023-04-19T11:41:14;102019.88;;;5.23;100.00
54022;BME280;39936;51.058;17.220;2023-04-19T11:44:34;102019.95;;;5.23;100.00
54022;BME280;39936;51.058;17.220;2023-04-19T11:48:25;102021.71;;;5.14;100.00
54022;BME280;39936;51.058;17.220;2023-04-19T11:52:36;102016.63;;;5.05;100.00
54022;BME280;39936;51.058;17.220;2023-04-19T12:00:13;102032.41;;;4.89;100.00
54022;BME280;39936;51.058;17.220;2023-04-19T12:03:48;102033.51;;;4.91;100.00
54022;BME280;39936;51.058;17.220;2023-04-19T12:07:28;102031.70;;;4.95;100.00
54022;BME280;39936;51.058;17.220;2023-04-19T12:10:56;102028.06;;;4.98;100.00
54022;BME280;39936;51.058;17.220;2023-04-19T12:14:15;102026.13;;;5.00;100.00
54022;BME280;39936;51.058;17.220;2023-04-19T12:18:26;102004.91;;;4.81;100.00
54022;BME280;39936;51.058;17.220;2023-04-19T12:22:09;102020.88;;;4.87;100.00
54022;BME280;39936;51.058;17.220;2023-04-19T12:25:47;102017.16;;;4.76;100.00
54022;BME280;39936;51.058;17.220;2023-04-19T12:29:34;102035.30;;;4.85;100.00
54022;BME280;39936;51.058;17.220;2023-04-19T12:32:57;102027.09;;;4.85;100.00
54022;BME280;39936;51.058;17.220;2023-04-19T12:36:56;102027.70;;;4.88;100.00
54022;BME280;39936;51.058;17.220;2023-04-19T12:40:36;102021.63;;;4.92;100.00
54022;BME280;39936;51.058;17.220;2023-04-19T12:43:54;102013.29;;;4.97;100.00
54022;BME280;39936;51.058;17.220;2023-04-19T12:47:30;102015.72;;;5.06;100.00
54022;BME280;39936;51.058;17.220;2023-04-19T12:51:19;102018.77;;;5.03;100.00
54022;BME280;39936;51.058;17.220;2023-04-19T12:55:20;102021.85;;;4.97;100.00
54022;BME280;39936;51.058;17.220;2023-04-19T12:59:01;102015.12;;;4.91;100.00
54022;BME280;39936;51.058;17.220;2023-04-19T13:02:37;101992.29;;;4.61;100.00
54022;BME280;39936;51.058;17.220;2023-04-19T13:05:56;102024.48;;;4.67;100.00
54022;BME280;39936;51.058;17.220;2023-04-19T13:09:13;102000.34;;;4.38;100.00
54022;BME280;39936;51.058;17.220;2023-04-19T13:12:51;102034.10;;;4.56;100.00
54022;BME280;39936;51.058;17.220;2023-04-19T13:16:07;102033.65;;;4.55;100.00
54022;BME280;39936;51.058;17.220;2023-04-19T13:19:39;102027.98;;;4.53;100.00
54022;BME280;39936;51.058;17.220;2023-04-19T13:26:53;102029.39;;;4.58;100.00
54022;BME280;39936;51.058;17.220;2023-04-19T13:30:12;102026.82;;;4.63;100.00
54022;BME280;39936;51.058;17.220;2023-04-19T13:33:44;102005.25;;;4.49;100.00
54022;BME280;39936;51.058;17.220;2023-04-19T13:37:01;102027.38;;;4.73;100.00
54022;BME280;39936;51.058;17.220;2023-04-19T13:40:48;102027.53;;;4.75;100.00
54022;BME280;39936;51.058;17.220;2023-04-19T13:44:27;102025.85;;;4.67;100.00
54022;BME280;39936;51.058;17.220;2023-04-19T13:47:46;102000.03;;;4.58;100.00
54022;BME280;39936;51.058;17.220;2023-04-19T13:51:03;102020.87;;;4.76;100.00
54022;BME280;39936;51.058;17.220;2023-04-19T13:54:22;102019.93;;;4.80;100.00
54022;BME280;39936;51.058;17.220;2023-04-19T13:57:38;101994.50;;;4.74;100.00
54022;BME280;39936;51.058;17.220;2023-04-19T14:01:18;102012.37;;;4.93;100.00
54022;BME280;39936;51.058;17.220;2023-04-19T14:05:09;102012.71;;;5.00;100.00
54022;BME280;39936;51.058;17.220;2023-04-19T14:09:10;102013.34;;;5.11;100.00
54022;BME280;39936;51.058;17.220;2023-04-19T14:13:15;102016.44;;;5.18;100.00
54022;BME280;39936;51.058;17.220;2023-04-19T14:20:48;102013.51;;;5.06;100.00
54022;BME280;39936;51.058;17.220;2023-04-19T14:24:41;102013.41;;;5.02;100.00
54022;BME280;39936;51.058;17.220;2023-04-19T14:28:50;102009.26;;;5.01;100.00
54022;BME280;39936;51.058;17.220;2023-04-19T14:32:05;102015.83;;;4.99;100.00
54022;BME280;39936;51.058;17.220;2023-04-19T14:35:58;102013.05;;;5.03;100.00
54022;BME280;39936;51.058;17.220;2023-04-19T14:39:39;102013.32;;;5.11;100.00
54022;BME280;39936;51.058;17.220;2023-04-19T14:43:10;102016.05;;;5.16;100.00
54022;BME280;39936;51.058;17.220;2023-04-19T14:47:13;102015.50;;;5.14;100.00
54022;BME280;39936;51.058;17.220;2023-04-19T14:51:26;102015.63;;;5.13;100.00
54022;BME280;39936;51.058;17.220;2023-04-19T14:55:26;102016.06;;;5.19;100.00
54022;BME280;39936;51.058;17.220;2023-04-19T14:59:09;102014.78;;;5.28;100.00
54022;BME280;39936;51.058;17.220;2023-04-19T15:02:25;102014.34;;;5.34;100.00
54022;BME280;39936;51.058;17.220;2023-04-19T15:05:55;102011.74;;;5.43;100.00
54022;BME280;39936;51.058;17.220;2023-04-19T15:10:07;102016.15;;;5.43;99.45
54022;BME280;39936;51.058;17.220;2023-04-19T15:14:12;102014.62;;;5.40;99.14
54022;BME280;39936;51.058;17.220;2023-04-19T15:18:02;102010.50;;;5.42;99.04
54022;BME280;39936;51.058;17.220;2023-04-19T15:21:36;102013.04;;;5.49;98.87
54022;BME280;39936;51.058;17.220;2023-04-19T15:25:05;102016.87;;;5.44;97.55
54022;BME280;39936;51.058;17.220;2023-04-19T15:28:41;101975.80;;;5.11;96.31
54022;BME280;39936;51.058;17.220;2023-04-19T15:33:05;102018.64;;;5.32;97.70
54022;BME280;39936;51.058;17.220;2023-04-19T15:36:22;102016.00;;;5.39;97.78
54022;BME280;39936;51.058;17.220;2023-04-19T15:40:04;101983.66;;;5.17;98.02
54022;BME280;39936;51.058;17.220;2023-04-19T15:44:33;102015.87;;;5.35;97.21
54022;BME280;39936;51.058;17.220;2023-04-19T15:48:20;101984.57;;;5.07;97.33
54022;BME280;39936;51.058;17.220;2023-04-19T15:52:21;102012.31;;;5.25;98.42
54022;BME280;39936;51.058;17.220;2023-04-19T15:55:38;102019.86;;;5.27;98.10
54022;BME280;39936;51.058;17.220;2023-04-19T15:59:16;102021.23;;;5.31;98.08
54022;BME280;39936;51.058;17.220;2023-04-19T16:02:57;102026.52;;;5.35;98.19
54022;BME280;39936;51.058;17.220;2023-04-19T16:07:19;102026.70;;;5.39;98.40
54022;BME280;39936;51.058;17.220;2023-04-19T16:11:20;102020.59;;;5.39;97.79
54022;BME280;39936;51.058;17.220;2023-04-19T16:18:26;102028.96;;;5.39;97.24
54022;BME280;39936;51.058;17.220;2023-04-19T16:21:42;102027.07;;;5.33;97.79
54022;BME280;39936;51.058;17.220;2023-04-19T16:25:55;102023.62;;;5.27;98.49
54022;BME280;39936;51.058;17.220;2023-04-19T16:29:18;102031.13;;;5.30;98.65
54022;BME280;39936;51.058;17.220;2023-04-19T16:32:54;102034.15;;;5.35;99.76
54022;BME280;39936;51.058;17.220;2023-04-19T16:36:40;102033.74;;;5.32;98.66
54022;BME280;39936;51.058;17.220;2023-04-19T16:40:22;102033.80;;;5.28;97.96
54022;BME280;39936;51.058;17.220;2023-04-19T16:44:03;102035.13;;;5.25;98.56
54022;BME280;39936;51.058;17.220;2023-04-19T16:47:40;102044.34;;;5.27;98.74
54022;BME280;39936;51.058;17.220;2023-04-19T16:51:55;102048.62;;;5.27;99.03
54022;BME280;39936;51.058;17.220;2023-04-19T16:55:37;102051.70;;;5.26;98.16
54022;BME280;39936;51.058;17.220;2023-04-19T16:59:19;102056.38;;;5.30;98.21
54022;BME280;39936;51.058;17.220;2023-04-19T17:03:26;102052.53;;;5.31;97.96
54022;BME280;39936;51.058;17.220;2023-04-19T17:06:44;102050.84;;;5.37;98.41
54022;BME280;39936;51.058;17.220;2023-04-19T17:10:00;102052.86;;;5.35;98.25
54022;BME280;39936;51.058;17.220;2023-04-19T17:13:18;102053.08;;;5.32;98.17
54022;BME280;39936;51.058;17.220;2023-04-19T17:16:57;102053.09;;;5.30;98.45
54022;BME280;39936;51.058;17.220;2023-04-19T17:20:33;102058.62;;;5.33;99.08
54022;BME280;39936;51.058;17.220;2023-04-19T17:24:09;102055.74;;;5.31;99.09
54022;BME280;39936;51.058;17.220;2023-04-19T17:27:45;102058.08;;;5.32;99.23
54022;BME280;39936;51.058;17.220;2023-04-19T17:31:10;102057.43;;;5.33;99.20
54022;BME280;39936;51.058;17.220;2023-04-19T17:34:45;102058.16;;;5.36;99.20
54022;BME280;39936;51.058;17.220;2023-04-19T17:38:05;102059.13;;;5.35;99.43
54022;BME280;39936;51.058;17.220;2023-04-19T17:41:56;102062.10;;;5.31;99.58
54022;BME280;39936;51.058;17.220;2023-04-19T17:46:11;102061.06;;;5.26;99.39
54022;BME280;39936;51.058;17.220;2023-04-19T17:49:50;102066.14;;;5.23;98.93
54022;BME280;39936;51.058;17.220;2023-04-19T17:53:05;102071.19;;;5.24;99.06
54022;BME280;39936;51.058;17.220;2023-04-19T17:56:44;102070.47;;;5.26;99.24
54022;BME280;39936;51.058;17.220;2023-04-19T18:00:30;102074.89;;;5.27;99.35
54022;BME280;39936;51.058;17.220;2023-04-19T18:07:46;102087.32;;;5.30;99.54
54022;BME280;39936;51.058;17.220;2023-04-19T18:11:03;102056.36;;;5.12;99.52
54022;BME280;39936;51.058;17.220;2023-04-19T18:14:43;102092.35;;;5.35;99.79
54022;BME280;39936;51.058;17.220;2023-04-19T18:18:33;102095.50;;;5.30;99.39
54022;BME280;39936;51.058;17.220;2023-04-19T18:22:08;102103.49;;;5.34;99.28
54022;BME280;39936;51.058;17.220;2023-04-19T18:25:53;102105.27;;;5.22;99.94
54022;BME280;39936;51.058;17.220;2023-04-19T18:29:52;102108.62;;;5.11;100.00
54022;BME280;39936;51.058;17.220;2023-04-19T18:33:25;102106.77;;;5.07;100.00
54022;BME280;39936;51.058;17.220;2023-04-19T18:41:14;102111.08;;;5.03;100.00
54022;BME280;39936;51.058;17.220;2023-04-19T18:44:35;102103.02;;;5.03;100.00
54022;BME280;39936;51.058;17.220;2023-04-19T18:47:56;102105.22;;;5.08;100.00
54022;BME280;39936;51.058;17.220;2023-04-19T18:55:21;102102.61;;;5.25;100.00
54022;BME280;39936;51.058;17.220;2023-04-19T18:58:39;102101.56;;;5.35;100.00
54022;BME280;39936;51.058;17.220;2023-04-19T19:02:13;102102.50;;;5.40;100.00
54022;BME280;39936;51.058;17.220;2023-04-19T19:05:30;102104.27;;;5.44;100.00
54022;BME280;39936;51.058;17.220;2023-04-19T19:13:12;102101.22;;;5.49;100.00
54022;BME280;39936;51.058;17.220;2023-04-19T19:16:54;102107.14;;;5.39;100.00
54022;BME280;39936;51.058;17.220;2023-04-19T19:20:45;102105.36;;;5.20;100.00
54022;BME280;39936;51.058;17.220;2023-04-19T19:24:13;102111.04;;;5.16;100.00
54022;BME280;39936;51.058;17.220;2023-04-19T19:27:48;102116.57;;;5.24;100.00
54022;BME280;39936;51.058;17.220;2023-04-19T19:31:34;102114.52;;;5.32;100.00
54022;BME280;39936;51.058;17.220;2023-04-19T19:35:13;102116.64;;;5.26;100.00
54022;BME280;39936;51.058;17.220;2023-04-19T19:38:29;102118.12;;;5.29;100.00
54022;BME280;39936;51.058;17.220;2023-04-19T19:42:23;102106.00;;;5.22;100.00
54022;BME280;39936;51.058;17.220;2023-04-19T19:46:02;102128.50;;;5.21;100.00
54022;BME280;39936;51.058;17.220;2023-04-19T19:49:42;102103.20;;;4.94;100.00
54022;BME280;39936;51.058;17.220;2023-04-19T19:53:02;102118.55;;;5.05;100.00
54022;BME280;39936;51.058;17.220;2023-04-19T19:56:35;102114.81;;;5.03;100.00
54022;BME280;39936;51.058;17.220;2023-04-19T20:00:17;102134.73;;;5.08;100.00
54022;BME280;39936;51.058;17.220;2023-04-19T20:03:50;102137.48;;;4.79;100.00
54022;BME280;39936;51.058;17.220;2023-04-19T20:07:43;102139.21;;;4.70;100.00
54022;BME280;39936;51.058;17.220;2023-04-19T20:11:30;102143.96;;;4.75;100.00
54022;BME280;39936;51.058;17.220;2023-04-19T20:14:51;102133.74;;;4.77;100.00
54022;BME280;39936;51.058;17.220;2023-04-19T20:18:08;102113.03;;;4.64;100.00
54022;BME280;39936;51.058;17.220;2023-04-19T20:21:48;102130.82;;;4.85;100.00
54022;BME280;39936;51.058;17.220;2023-04-19T20:25:47;102141.16;;;4.88;100.00